createdAt,value
2019-03-05T00:00:48.537Z,9.50
2019-03-05T00:03:17.647Z,9.50
2019-03-05T00:05:46.623Z,9.50
2019-03-05T00:08:15.618Z,9.40
2019-03-05T00:10:44.681Z,9.40
2019-03-05T00:13:13.818Z,9.40
2019-03-05T00:15:43.543Z,9.40
2019-03-05T00:18:12.634Z,9.30
2019-03-05T00:20:41.678Z,9.30
2019-03-05T00:23:10.702Z,9.30
2019-03-05T00:25:39.770Z,9.30
2019-03-05T00:28:12.624Z,9.30
2019-03-05T00:30:51.031Z,9.30
2019-03-05T00:33:39.118Z,9.30
2019-03-05T00:36:27.942Z,9.20
2019-03-05T00:39:26.269Z,9.20
2019-03-05T00:42:04.463Z,9.20
2019-03-05T00:44:56.150Z,9.20
2019-03-05T00:48:27.550Z,9.20
2019-03-05T00:51:24.310Z,9.10
2019-03-05T00:54:43.309Z,9.10
2019-03-05T00:57:37.174Z,9.10
2019-03-05T01:00:12.732Z,9.10
2019-03-05T01:03:04.502Z,9.10
2019-03-05T01:06:20.742Z,9.00
2019-03-05T01:08:49.842Z,9.00
2019-03-05T01:11:19.438Z,9.00
2019-03-05T01:13:48.448Z,9.00
2019-03-05T01:16:19.241Z,9.00
2019-03-05T01:18:48.265Z,9.00
2019-03-05T01:21:17.419Z,8.90
2019-03-05T01:23:46.575Z,8.90
2019-03-05T01:26:15.599Z,8.90
2019-03-05T01:28:44.638Z,8.90
2019-03-05T01:31:51.049Z,8.90
2019-03-05T01:34:42.206Z,8.90
2019-03-05T01:37:11.645Z,8.90
2019-03-05T01:39:46.220Z,8.90
2019-03-05T01:42:15.182Z,8.80
2019-03-05T01:44:45.289Z,8.80
2019-03-05T01:47:14.259Z,8.80
2019-03-05T01:49:43.292Z,8.80
2019-03-05T01:52:12.349Z,8.80
2019-03-05T01:54:41.369Z,8.80
2019-03-05T01:57:10.416Z,8.80
2019-03-05T01:59:39.454Z,8.70
2019-03-05T02:02:08.560Z,8.70
2019-03-05T02:04:37.638Z,8.70
2019-03-05T02:07:06.643Z,8.70
2019-03-05T02:09:35.706Z,8.70
2019-03-05T02:12:04.733Z,8.70
2019-03-05T02:14:33.716Z,8.70
2019-03-05T02:17:02.794Z,8.70
2019-03-05T02:19:36.741Z,8.70
2019-03-05T02:22:07.901Z,8.60
2019-03-05T02:25:12.443Z,8.70
2019-03-05T02:28:11.165Z,8.60
2019-03-05T02:30:53.417Z,8.60
2019-03-05T02:33:44.107Z,8.60
2019-03-05T02:36:35.191Z,8.60
2019-03-05T02:39:57.649Z,8.50
2019-03-05T02:43:09.053Z,8.50
2019-03-05T02:45:50.227Z,8.50
2019-03-05T02:48:55.870Z,8.50
2019-03-05T02:51:46.777Z,8.40
2019-03-05T02:54:59.062Z,8.40
2019-03-05T02:57:26.781Z,8.40
2019-03-05T02:59:55.934Z,8.40
2019-03-05T03:02:43.440Z,8.30
2019-03-05T03:05:37.313Z,8.30
2019-03-05T03:08:06.378Z,8.30
2019-03-05T03:10:35.427Z,8.30
2019-03-05T03:13:04.470Z,8.30
2019-03-05T03:15:33.543Z,8.30
2019-03-05T03:18:02.532Z,8.30
2019-03-05T03:20:31.534Z,8.20
2019-03-05T03:23:00.652Z,8.20
2019-03-05T03:25:29.684Z,8.20
2019-03-05T03:27:58.725Z,8.20
2019-03-05T03:30:28.444Z,8.20
2019-03-05T03:32:57.560Z,8.20
2019-03-05T03:35:26.629Z,8.20
2019-03-05T03:37:55.800Z,8.20
2019-03-05T03:40:25.234Z,8.20
2019-03-05T03:42:54.575Z,8.10
2019-03-05T03:45:24.791Z,8.10
2019-03-05T03:47:53.906Z,8.10
2019-03-05T03:50:22.984Z,8.10
2019-03-05T03:52:52.016Z,8.10
2019-03-05T03:55:21.132Z,8.00
2019-03-05T03:57:50.090Z,8.00
2019-03-05T04:00:20.859Z,8.00
2019-03-05T04:02:50.020Z,8.00
2019-03-05T04:05:19.049Z,8.00
2019-03-05T04:07:48.085Z,8.00
2019-03-05T04:10:17.130Z,8.00
2019-03-05T04:12:46.249Z,7.90
2019-03-05T04:15:16.866Z,7.90
2019-03-05T04:17:45.857Z,7.90
2019-03-05T04:20:19.092Z,7.90
2019-03-05T04:22:49.366Z,7.90
2019-03-05T04:25:37.541Z,7.90
2019-03-05T04:28:06.672Z,7.90
2019-03-05T04:30:35.731Z,7.90
2019-03-05T04:33:04.796Z,7.90
2019-03-05T04:35:33.925Z,7.90
2019-03-05T04:38:02.997Z,7.80
2019-03-05T04:40:31.959Z,7.80
2019-03-05T04:43:01.105Z,7.80
2019-03-05T04:45:53.855Z,7.80
2019-03-05T04:48:23.001Z,7.80
2019-03-05T04:50:58.386Z,7.80
2019-03-05T04:53:27.438Z,7.80
2019-03-05T04:55:56.522Z,7.80
2019-03-05T04:58:25.595Z,7.70
2019-03-05T05:00:56.338Z,7.70
2019-03-05T05:03:25.386Z,7.70
2019-03-05T05:05:54.390Z,7.70
2019-03-05T05:08:23.398Z,7.70
2019-03-05T05:10:52.519Z,7.70
2019-03-05T05:13:21.600Z,7.70
2019-03-05T05:15:50.740Z,7.60
2019-03-05T05:18:19.782Z,7.60
2019-03-05T05:20:48.820Z,7.60
2019-03-05T05:23:17.839Z,7.60
2019-03-05T05:25:47.077Z,7.60
2019-03-05T05:28:16.206Z,7.50
2019-03-05T05:30:45.221Z,7.60
2019-03-05T05:33:14.200Z,7.50
2019-03-05T05:35:43.187Z,7.50
2019-03-05T05:38:12.891Z,7.50
2019-03-05T05:40:54.297Z,7.50
2019-03-05T05:43:28.354Z,7.50
2019-03-05T05:45:57.358Z,7.50
2019-03-05T05:48:26.424Z,7.50
2019-03-05T05:50:55.441Z,7.50
2019-03-05T05:53:24.454Z,7.40
2019-03-05T05:55:53.528Z,7.40
2019-03-05T05:58:22.566Z,7.40
2019-03-05T06:00:54.189Z,7.40
2019-03-05T06:03:23.196Z,7.40
2019-03-05T06:05:52.280Z,7.40
2019-03-05T06:08:21.365Z,7.40
2019-03-05T06:10:52.692Z,7.40
2019-03-05T06:13:21.115Z,7.40
2019-03-05T06:15:50.170Z,7.40
2019-03-05T06:18:19.292Z,7.30
2019-03-05T06:20:48.338Z,7.30
2019-03-05T06:23:36.570Z,7.30
2019-03-05T06:26:08.623Z,7.30
2019-03-05T06:28:36.349Z,7.30
2019-03-05T06:31:05.362Z,7.30
2019-03-05T06:33:53.543Z,7.30
2019-03-05T06:36:22.594Z,7.30
2019-03-05T06:38:51.556Z,7.20
2019-03-05T06:41:20.565Z,7.20
2019-03-05T06:43:49.589Z,7.20
2019-03-05T06:46:18.587Z,7.20
2019-03-05T06:48:47.637Z,7.20
2019-03-05T06:51:16.715Z,7.20
2019-03-05T06:53:45.845Z,7.20
2019-03-05T06:56:14.874Z,7.20
2019-03-05T06:58:43.899Z,7.30
2019-03-05T07:01:12.986Z,7.20
2019-03-05T07:03:41.999Z,7.30
2019-03-05T07:06:48.030Z,7.20
2019-03-05T07:09:34.097Z,7.30
2019-03-05T07:12:19.095Z,7.30
2019-03-05T07:15:18.433Z,7.30
2019-03-05T07:17:51.742Z,7.30
2019-03-05T07:20:44.547Z,7.30
2019-03-05T07:23:54.749Z,7.30
2019-03-05T07:26:23.763Z,7.30
2019-03-05T07:28:52.781Z,7.30
2019-03-05T07:31:28.453Z,7.30
2019-03-05T07:33:57.465Z,7.40
2019-03-05T07:36:26.457Z,7.40
2019-03-05T07:38:55.443Z,7.50
2019-03-05T07:41:24.463Z,7.60
2019-03-05T07:44:12.661Z,7.70
2019-03-05T07:46:41.747Z,7.80
2019-03-05T07:49:10.796Z,7.90
2019-03-05T07:51:39.846Z,7.90
2019-03-05T07:54:10.070Z,8.00
2019-03-05T07:56:39.072Z,8.10
2019-03-05T07:59:08.133Z,8.20
2019-03-05T08:01:37.196Z,8.20
2019-03-05T08:04:06.208Z,8.30
2019-03-05T08:06:35.174Z,8.40
2019-03-05T08:09:32.053Z,8.50
2019-03-05T08:12:11.271Z,8.60
2019-03-05T08:14:58.475Z,8.70
2019-03-05T08:17:27.525Z,8.80
2019-03-05T08:19:56.569Z,8.90
2019-03-05T08:22:26.963Z,9.00
2019-03-05T08:24:55.983Z,9.20
2019-03-05T08:27:25.002Z,9.40
2019-03-05T08:29:53.961Z,9.60
2019-03-05T08:32:23.011Z,9.70
2019-03-05T08:34:52.025Z,9.80
2019-03-05T08:37:20.994Z,9.90
2019-03-05T08:39:50.217Z,10.00
2019-03-05T08:42:19.151Z,10.40
2019-03-05T08:44:50.709Z,10.60
2019-03-05T08:47:18.886Z,11.40
2019-03-05T08:49:47.840Z,12.20
2019-03-05T08:52:16.848Z,12.40
2019-03-05T08:54:45.893Z,12.50
2019-03-05T08:57:14.942Z,13.10
2019-03-05T08:59:43.931Z,12.70
2019-03-05T09:02:13.030Z,12.50
2019-03-05T09:04:42.063Z,12.30
2019-03-05T09:07:11.127Z,12.10
2019-03-05T09:09:40.153Z,11.90
2019-03-05T09:12:09.253Z,11.90
2019-03-05T09:14:38.306Z,11.90
2019-03-05T09:17:07.289Z,11.90
2019-03-05T09:19:36.324Z,11.80
2019-03-05T09:22:05.351Z,12.00
2019-03-05T09:24:34.395Z,12.20
2019-03-05T09:27:03.421Z,12.30
2019-03-05T09:29:32.494Z,12.70
2019-03-05T09:32:01.558Z,12.90
2019-03-05T09:34:30.633Z,13.20
2019-03-05T09:36:59.656Z,13.20
2019-03-05T09:39:28.664Z,13.30
2019-03-05T09:41:57.770Z,13.50
2019-03-05T09:44:26.792Z,13.70
2019-03-05T09:46:55.810Z,14.00
2019-03-05T09:49:24.894Z,14.20
2019-03-05T09:51:53.823Z,14.40
2019-03-05T09:54:22.849Z,14.60
2019-03-05T09:56:51.870Z,14.90
2019-03-05T09:59:20.892Z,15.30
2019-03-05T10:01:53.600Z,15.40
2019-03-05T10:04:22.602Z,15.40
2019-03-05T10:06:51.670Z,15.40
2019-03-05T10:09:20.725Z,15.30
2019-03-05T10:11:56.381Z,15.10
2019-03-05T10:14:20.492Z,15.00
2019-03-05T10:16:49.506Z,14.80
2019-03-05T10:19:18.534Z,14.70
2019-03-05T10:21:47.509Z,14.50
2019-03-05T10:24:16.625Z,14.40
2019-03-05T10:26:45.687Z,14.50
2019-03-05T10:29:14.698Z,14.60
2019-03-05T10:31:43.738Z,14.60
2019-03-05T10:34:12.813Z,14.60
2019-03-05T10:36:41.827Z,14.60
2019-03-05T10:39:30.620Z,14.60
2019-03-05T10:41:55.990Z,14.50
2019-03-05T10:44:25.049Z,14.50
2019-03-05T10:46:56.010Z,14.50
2019-03-05T10:49:24.825Z,14.50
2019-03-05T10:51:53.961Z,14.50
2019-03-05T10:54:23.012Z,14.60
2019-03-05T10:56:52.012Z,14.70
2019-03-05T10:59:21.157Z,14.90
2019-03-05T11:01:50.319Z,15.10
2019-03-05T11:04:19.329Z,15.30
2019-03-05T11:06:48.361Z,15.60
2019-03-05T11:09:17.998Z,15.80
2019-03-05T11:11:47.168Z,16.00
2019-03-05T11:14:16.177Z,16.20
2019-03-05T11:16:45.213Z,16.40
2019-03-05T11:19:14.257Z,16.50
2019-03-05T11:21:43.296Z,16.60
2019-03-05T11:24:12.303Z,16.60
2019-03-05T11:26:41.378Z,16.50
2019-03-05T11:29:10.450Z,16.50
2019-03-05T11:31:39.438Z,16.40
2019-03-05T11:34:08.477Z,16.30
2019-03-05T11:36:37.510Z,16.30
2019-03-05T11:39:06.871Z,16.30
2019-03-05T11:41:35.898Z,16.30
2019-03-05T11:44:04.977Z,16.40
2019-03-05T11:46:33.933Z,16.60
2019-03-05T11:49:02.922Z,16.70
2019-03-05T11:51:31.929Z,17.00
2019-03-05T11:54:00.971Z,17.10
2019-03-05T11:56:30.034Z,17.30
2019-03-05T11:58:59.111Z,17.50
2019-03-05T12:01:34.775Z,17.70
2019-03-05T12:04:03.770Z,18.00
2019-03-05T12:06:32.791Z,18.30
2019-03-05T12:09:01.794Z,18.60
2019-03-05T12:11:30.826Z,18.80
2019-03-05T12:13:59.788Z,19.10
2019-03-05T12:16:28.754Z,19.40
2019-03-05T12:18:57.785Z,19.60
2019-03-05T12:21:26.956Z,19.90
2019-03-05T12:23:55.959Z,20.10
2019-03-05T12:26:24.988Z,20.30
2019-03-05T12:28:54.024Z,20.40
2019-03-05T12:31:23.185Z,20.50
2019-03-05T12:33:52.242Z,20.60
2019-03-05T12:36:21.306Z,20.60
2019-03-05T12:38:50.327Z,20.60
2019-03-05T12:41:19.347Z,20.60
2019-03-05T12:43:48.412Z,20.70
2019-03-05T12:46:17.444Z,20.70
2019-03-05T12:48:46.363Z,20.60
2019-03-05T12:51:15.386Z,20.70
2019-03-05T12:53:44.354Z,20.60
2019-03-05T12:56:23.555Z,20.60
2019-03-05T12:58:44.025Z,20.60
2019-03-05T13:01:13.181Z,20.60
2019-03-05T13:03:42.252Z,20.60
2019-03-05T13:06:11.284Z,20.40
2019-03-05T13:08:40.287Z,20.40
2019-03-05T13:11:12.617Z,20.30
2019-03-05T13:13:40.058Z,20.20
2019-03-05T13:16:09.096Z,20.20
2019-03-05T13:18:38.273Z,20.10
2019-03-05T13:21:07.661Z,20.00
2019-03-05T13:23:37.689Z,20.10
2019-03-05T13:26:07.564Z,20.10
2019-03-05T13:28:40.554Z,20.20
2019-03-05T13:31:08.076Z,20.30
2019-03-05T13:33:38.020Z,20.50
2019-03-05T13:36:12.021Z,20.60
2019-03-05T13:38:41.847Z,20.80
2019-03-05T13:41:12.135Z,20.90
2019-03-05T13:43:41.284Z,21.10
2019-03-05T13:46:10.329Z,21.30
2019-03-05T13:49:23.998Z,21.50
2019-03-05T13:52:25.058Z,21.60
2019-03-05T13:55:09.641Z,21.80
2019-03-05T13:58:06.175Z,22.00
2019-03-05T14:00:35.302Z,22.10
2019-03-05T14:03:20.679Z,22.30
2019-03-05T14:06:33.539Z,22.30
2019-03-05T14:09:22.547Z,22.50
2019-03-05T14:11:52.222Z,22.60
2019-03-05T14:14:22.953Z,22.60
2019-03-05T14:17:14.186Z,22.60
2019-03-05T14:19:43.327Z,22.60
2019-03-05T14:22:12.325Z,22.60
2019-03-05T14:24:41.355Z,22.60
2019-03-05T14:27:10.389Z,22.70
2019-03-05T14:29:39.512Z,22.70
2019-03-05T14:32:08.913Z,22.80
2019-03-05T14:34:37.997Z,22.90
2019-03-05T14:37:07.059Z,22.90
2019-03-05T14:39:36.923Z,22.90
2019-03-05T14:42:08.078Z,22.90
2019-03-05T14:44:40.103Z,22.90
2019-03-05T14:47:08.119Z,22.90
2019-03-05T14:49:37.122Z,23.00
2019-03-05T14:52:06.258Z,23.00
2019-03-05T14:54:35.334Z,23.10
2019-03-05T14:57:04.365Z,23.20
2019-03-05T14:59:33.368Z,23.20
2019-03-05T15:02:02.517Z,23.20
2019-03-05T15:04:31.652Z,23.30
2019-03-05T15:07:00.717Z,23.30
2019-03-05T15:09:29.781Z,23.30
2019-03-05T15:11:58.801Z,23.30
2019-03-05T15:14:27.901Z,23.40
2019-03-05T15:16:56.959Z,23.40
2019-03-05T15:19:25.955Z,23.50
2019-03-05T15:21:54.948Z,23.50
2019-03-05T15:24:24.069Z,23.50
2019-03-05T15:26:53.193Z,23.50
2019-03-05T15:29:22.435Z,23.50
2019-03-05T15:31:51.486Z,23.50
2019-03-05T15:34:20.548Z,23.50
2019-03-05T15:36:52.044Z,23.50
2019-03-05T15:39:20.331Z,23.60
2019-03-05T15:41:49.458Z,23.60
2019-03-05T15:44:18.464Z,23.60
2019-03-05T15:46:47.556Z,23.60
2019-03-05T15:49:16.748Z,23.70
2019-03-05T15:51:45.874Z,23.70
2019-03-05T15:54:14.920Z,23.70
2019-03-05T15:56:44.086Z,23.60
2019-03-05T15:59:13.161Z,23.50
2019-03-05T16:01:42.218Z,23.30
2019-03-05T16:04:11.300Z,23.20
2019-03-05T16:06:40.357Z,23.20
2019-03-05T16:09:17.609Z,23.30
2019-03-05T16:11:46.690Z,23.20
2019-03-05T16:14:15.792Z,23.10
2019-03-05T16:16:44.783Z,23.00
2019-03-05T16:19:16.638Z,22.90
2019-03-05T16:21:44.674Z,22.70
2019-03-05T16:24:13.793Z,22.50
2019-03-05T16:26:42.937Z,22.30
2019-03-05T16:29:12.101Z,22.10
2019-03-05T16:31:51.277Z,21.80
2019-03-05T16:34:45.839Z,21.60
2019-03-05T16:37:26.734Z,21.30
2019-03-05T16:40:00.918Z,21.10
2019-03-05T16:42:49.057Z,20.90
2019-03-05T16:45:30.657Z,20.70
2019-03-05T16:48:09.190Z,20.50
2019-03-05T16:50:55.731Z,20.40
2019-03-05T16:53:43.853Z,20.20
2019-03-05T16:56:32.170Z,20.00
2019-03-05T16:59:14.502Z,19.90
2019-03-05T17:01:49.234Z,19.70
2019-03-05T17:04:49.525Z,19.50
2019-03-05T17:07:25.862Z,19.40
2019-03-05T17:10:22.615Z,19.20
2019-03-05T17:12:51.706Z,19.10
2019-03-05T17:15:20.684Z,18.90
2019-03-05T17:17:49.849Z,18.80
2019-03-05T17:20:18.930Z,18.70
2019-03-05T17:22:47.982Z,18.50
2019-03-05T17:25:17.190Z,18.40
2019-03-05T17:27:46.287Z,18.30
2019-03-05T17:30:15.894Z,18.20
2019-03-05T17:32:44.951Z,18.10
2019-03-05T17:35:14.061Z,18.00
2019-03-05T17:37:43.209Z,17.80
2019-03-05T17:40:12.237Z,17.70
2019-03-05T17:42:41.258Z,17.60
2019-03-05T17:45:13.238Z,17.40
2019-03-05T17:47:42.347Z,17.30
2019-03-05T17:50:11.730Z,17.20
2019-03-05T17:52:40.790Z,17.10
2019-03-05T17:55:11.852Z,17.00
2019-03-05T17:57:41.046Z,16.90
2019-03-05T18:00:12.191Z,16.80
2019-03-05T18:02:41.306Z,16.70
2019-03-05T18:05:10.367Z,16.60
2019-03-05T18:07:39.480Z,16.50
2019-03-05T18:10:09.386Z,16.50
2019-03-05T18:12:38.631Z,16.30
2019-03-05T18:15:08.542Z,16.20
2019-03-05T18:17:37.598Z,16.10
2019-03-05T18:20:08.070Z,16.00
2019-03-05T18:22:37.201Z,15.90
2019-03-05T18:25:06.935Z,15.90
2019-03-05T18:27:36.069Z,15.80
2019-03-05T18:30:06.955Z,15.70
2019-03-05T18:32:36.122Z,15.60
2019-03-05T18:35:05.660Z,15.50
2019-03-05T18:37:34.679Z,15.40
2019-03-05T18:40:04.122Z,15.30
2019-03-05T18:42:33.159Z,15.30
2019-03-05T18:45:02.227Z,15.20
2019-03-05T18:47:31.303Z,15.10
2019-03-05T18:50:00.409Z,15.10
2019-03-05T18:52:29.518Z,15.00
2019-03-05T18:54:58.642Z,14.90
2019-03-05T18:57:27.812Z,14.80
2019-03-05T18:59:56.911Z,14.80
2019-03-05T19:02:26.373Z,14.70
2019-03-05T19:04:55.451Z,14.60
2019-03-05T19:07:24.506Z,14.50
2019-03-05T19:09:53.569Z,14.50
2019-03-05T19:12:22.801Z,14.40
2019-03-05T19:14:52.219Z,14.30
2019-03-05T19:17:21.323Z,14.30
2019-03-05T19:19:50.483Z,14.20
2019-03-05T19:22:19.685Z,14.20
2019-03-05T19:24:48.992Z,14.10
2019-03-05T19:27:25.963Z,14.00
2019-03-05T19:29:48.885Z,13.90
2019-03-05T19:32:18.010Z,13.80
2019-03-05T19:34:47.217Z,13.80
2019-03-05T19:37:16.297Z,13.70
2019-03-05T19:39:46.302Z,13.70
2019-03-05T19:42:15.364Z,13.60
2019-03-05T19:44:44.408Z,13.50
2019-03-05T19:47:13.454Z,13.40
2019-03-05T19:49:44.114Z,13.30
2019-03-05T19:52:13.180Z,13.30
2019-03-05T19:54:44.973Z,13.20
2019-03-05T19:57:14.523Z,13.10
2019-03-05T19:59:49.659Z,13.10
2019-03-05T20:02:19.852Z,13.00
2019-03-05T20:04:49.188Z,13.00
2019-03-05T20:07:18.345Z,12.90
2019-03-05T20:09:47.411Z,12.80
2019-03-05T20:12:16.464Z,12.80
2019-03-05T20:15:05.291Z,12.70
2019-03-05T20:17:34.358Z,12.70
2019-03-05T20:20:03.674Z,12.60
2019-03-05T20:22:32.699Z,12.60
2019-03-05T20:25:01.869Z,12.50
2019-03-05T20:27:30.931Z,12.40
2019-03-05T20:30:00.034Z,12.30
2019-03-05T20:32:29.198Z,12.20
2019-03-05T20:34:58.260Z,12.10
2019-03-05T20:37:27.367Z,12.10
2019-03-05T20:39:56.473Z,12.00
2019-03-05T20:42:25.527Z,12.00
2019-03-05T20:44:54.673Z,12.00
2019-03-05T20:47:23.700Z,12.00
2019-03-05T20:49:52.740Z,11.90
2019-03-05T20:52:21.728Z,11.90
2019-03-05T20:54:50.847Z,11.80
2019-03-05T20:57:20.022Z,11.80
2019-03-05T20:59:49.083Z,11.70
2019-03-05T21:02:18.208Z,11.70
2019-03-05T21:05:06.720Z,11.60
2019-03-05T21:07:35.817Z,11.60
2019-03-05T21:10:05.554Z,11.50
2019-03-05T21:12:34.651Z,11.40
2019-03-05T21:15:03.763Z,11.30
2019-03-05T21:17:32.850Z,11.30
2019-03-05T21:20:01.905Z,11.20
2019-03-05T21:22:30.957Z,11.20
2019-03-05T21:24:59.989Z,11.20
2019-03-05T21:27:29.107Z,11.10
2019-03-05T21:29:58.144Z,11.10
2019-03-05T21:32:27.296Z,11.10
2019-03-05T21:35:15.595Z,11.00
2019-03-05T21:37:44.634Z,11.00
2019-03-05T21:40:18.619Z,10.90
2019-03-05T21:42:47.706Z,10.90
2019-03-05T21:45:22.877Z,10.90
2019-03-05T21:47:51.942Z,10.80
2019-03-05T21:50:23.048Z,10.70
2019-03-05T21:52:51.926Z,10.70
2019-03-05T21:55:20.973Z,10.60
2019-03-05T21:57:49.988Z,10.60
2019-03-05T22:00:21.518Z,10.60
2019-03-05T22:02:50.593Z,10.60
2019-03-05T22:05:19.664Z,10.50
2019-03-05T22:07:48.665Z,10.50
2019-03-05T22:10:18.586Z,10.50
2019-03-05T22:12:47.918Z,10.40
2019-03-05T22:15:18.319Z,10.40
2019-03-05T22:17:47.388Z,10.40
2019-03-05T22:20:16.643Z,10.30
2019-03-05T22:22:45.665Z,10.30
2019-03-05T22:25:16.406Z,10.30
2019-03-05T22:27:45.497Z,10.20
2019-03-05T22:30:19.702Z,10.20
2019-03-05T22:32:48.763Z,10.20
2019-03-05T22:35:19.437Z,10.20
2019-03-05T22:37:48.561Z,10.20
2019-03-05T22:40:17.705Z,10.10
2019-03-05T22:42:46.768Z,10.20
2019-03-05T22:45:20.279Z,10.10
2019-03-05T22:47:49.674Z,10.10
2019-03-05T22:50:37.877Z,10.10
2019-03-05T22:53:06.979Z,10.10
2019-03-05T22:55:36.044Z,10.10
2019-03-05T22:58:05.112Z,10.10
2019-03-05T23:01:17.383Z,10.10
2019-03-05T23:03:53.013Z,10.10
2019-03-05T23:06:22.238Z,10.10
2019-03-05T23:08:51.269Z,10.10
2019-03-05T23:11:20.253Z,10.00
2019-03-05T23:13:49.252Z,10.00
2019-03-05T23:16:18.348Z,10.00
2019-03-05T23:18:47.829Z,10.00
2019-03-05T23:21:17.041Z,10.00
2019-03-05T23:23:46.150Z,10.00
2019-03-05T23:26:15.314Z,10.00
2019-03-05T23:28:44.370Z,10.00
2019-03-05T23:31:13.673Z,10.00
2019-03-05T23:33:42.705Z,10.00
2019-03-05T23:36:11.802Z,9.90
2019-03-05T23:38:40.864Z,9.90
2019-03-05T23:41:09.890Z,10.00
2019-03-05T23:43:39.067Z,9.90
2019-03-05T23:46:08.126Z,9.90
2019-03-05T23:48:37.141Z,9.90
2019-03-05T23:51:07.333Z,9.90
2019-03-05T23:53:55.559Z,9.90
2019-03-05T23:56:24.713Z,9.90
2019-03-05T23:58:53.926Z,9.90
